createdAt,value
2022-09-28T00:01:25.917Z,7.36
2022-09-28T00:03:57.779Z,7.36
2022-09-28T00:06:28.261Z,7.38
2022-09-28T00:08:55.922Z,7.34
2022-09-28T00:11:25.518Z,7.33
2022-09-28T00:13:56.943Z,7.30
2022-09-28T00:16:28.063Z,7.27
2022-09-28T00:18:55.434Z,7.25
2022-09-28T00:21:25.834Z,7.19
2022-09-28T00:24:13.299Z,7.16
2022-09-28T00:26:51.713Z,7.11
2022-09-28T00:29:27.688Z,7.08
2022-09-28T00:32:04.360Z,7.10
2022-09-28T00:34:36.737Z,7.11
2022-09-28T00:37:06.610Z,7.07
2022-09-28T00:39:34.662Z,7.11
2022-09-28T00:42:02.718Z,7.07
2022-09-28T00:45:01.664Z,7.00
2022-09-28T00:47:51.755Z,6.98
2022-09-28T00:50:30.559Z,6.95
2022-09-28T00:53:02.557Z,6.90
2022-09-28T00:56:07.598Z,6.88
2022-09-28T00:58:44.656Z,6.89
2022-09-28T01:01:12.766Z,6.87
2022-09-28T01:03:45.688Z,6.87
2022-09-28T01:06:20.718Z,6.89
2022-09-28T01:08:50.973Z,6.83
2022-09-28T01:11:19.529Z,6.90
2022-09-28T01:13:48.810Z,6.86
2022-09-28T01:16:35.567Z,6.87
2022-09-28T01:19:44.107Z,6.81
2022-09-28T01:22:34.498Z,6.82
2022-09-28T01:25:40.977Z,6.81
2022-09-28T01:28:21.857Z,6.81
2022-09-28T01:31:06.845Z,6.76
2022-09-28T01:33:47.120Z,6.75
2022-09-28T01:36:28.465Z,6.75
2022-09-28T01:39:07.388Z,6.76
2022-09-28T01:41:36.958Z,6.74
2022-09-28T01:44:08.961Z,6.74
2022-09-28T01:46:44.865Z,6.69
2022-09-28T01:49:20.609Z,6.67
2022-09-28T01:51:56.256Z,6.66
2022-09-28T01:54:34.317Z,6.64
2022-09-28T01:57:11.773Z,6.58
2022-09-28T01:59:44.921Z,6.58
2022-09-28T02:02:16.970Z,6.61
2022-09-28T02:04:52.593Z,6.58
2022-09-28T02:07:56.337Z,6.50
2022-09-28T02:10:30.503Z,6.49
2022-09-28T02:13:09.337Z,6.46
2022-09-28T02:16:06.226Z,6.39
2022-09-28T02:18:34.040Z,6.38
2022-09-28T02:21:14.187Z,6.32
2022-09-28T02:23:54.346Z,6.28
2022-09-28T02:26:27.129Z,6.24
2022-09-28T02:28:53.918Z,6.20
2022-09-28T02:31:21.119Z,6.18
2022-09-28T02:33:51.173Z,6.15
2022-09-28T02:36:18.403Z,6.15
2022-09-28T02:38:45.370Z,6.12
2022-09-28T02:41:27.015Z,6.10
2022-09-28T02:44:15.993Z,6.07
2022-09-28T02:47:45.304Z,6.05
2022-09-28T02:50:59.652Z,6.00
2022-09-28T02:54:18.524Z,5.94
2022-09-28T02:57:04.052Z,5.89
2022-09-28T03:00:10.673Z,5.86
2022-09-28T03:02:46.721Z,5.86
2022-09-28T03:05:23.432Z,5.88
2022-09-28T03:08:04.157Z,5.87
2022-09-28T03:10:44.243Z,5.88
2022-09-28T03:13:14.291Z,5.86
2022-09-28T03:15:46.462Z,5.86
2022-09-28T03:18:15.323Z,5.82
2022-09-28T03:20:42.468Z,5.83
2022-09-28T03:23:25.425Z,5.79
2022-09-28T03:25:52.510Z,5.76
2022-09-28T03:28:19.641Z,5.71
2022-09-28T03:30:46.397Z,5.71
2022-09-28T03:33:13.243Z,5.65
2022-09-28T03:35:40.025Z,5.63
2022-09-28T03:38:06.868Z,5.61
2022-09-28T03:40:33.725Z,5.55
2022-09-28T03:43:01.536Z,5.53
2022-09-28T03:45:28.368Z,5.49
2022-09-28T03:47:55.213Z,5.45
2022-09-28T03:50:22.099Z,5.41
2022-09-28T03:52:49.073Z,5.37
2022-09-28T03:55:15.889Z,5.34
2022-09-28T03:57:42.655Z,5.29
2022-09-28T04:00:10.883Z,5.25
2022-09-28T04:02:37.767Z,5.22
2022-09-28T04:05:05.072Z,5.18
2022-09-28T04:07:31.860Z,5.15
2022-09-28T04:09:59.134Z,5.13
2022-09-28T04:12:25.908Z,5.12
2022-09-28T04:14:52.651Z,5.10
2022-09-28T04:17:19.582Z,5.07
2022-09-28T04:19:47.523Z,5.04
2022-09-28T04:22:14.394Z,5.00
2022-09-28T04:24:43.624Z,4.99
2022-09-28T04:27:28.833Z,4.99
2022-09-28T04:29:55.657Z,4.96
2022-09-28T04:32:22.571Z,5.08
2022-09-28T04:34:49.750Z,5.18
2022-09-28T04:37:16.638Z,5.32
2022-09-28T04:39:47.585Z,5.39
2022-09-28T04:42:15.141Z,5.52
2022-09-28T04:44:41.921Z,5.63
2022-09-28T04:47:08.735Z,5.74
2022-09-28T04:49:37.493Z,5.84
2022-09-28T04:52:06.202Z,5.93
2022-09-28T04:54:33.384Z,6.02
2022-09-28T04:57:00.208Z,6.09
2022-09-28T04:59:27.080Z,6.13
2022-09-28T05:01:54.289Z,6.22
2022-09-28T05:04:25.610Z,6.30
2022-09-28T05:06:52.863Z,6.35
2022-09-28T05:09:19.710Z,6.41
2022-09-28T05:11:46.812Z,6.46
2022-09-28T05:14:13.631Z,6.50
2022-09-28T05:16:40.438Z,6.59
2022-09-28T05:19:07.503Z,6.63
2022-09-28T05:21:34.319Z,6.62
2022-09-28T05:24:01.515Z,6.69
2022-09-28T05:26:28.288Z,6.71
2022-09-28T05:28:55.078Z,6.79
2022-09-28T05:31:21.999Z,6.80
2022-09-28T05:33:49.310Z,6.90
2022-09-28T05:36:16.190Z,6.92
2022-09-28T05:38:43.370Z,6.92
2022-09-28T05:41:10.138Z,6.92
2022-09-28T05:43:37.107Z,6.96
2022-09-28T05:46:04.195Z,6.96
2022-09-28T05:48:31.149Z,6.94
2022-09-28T05:50:59.156Z,6.95
2022-09-28T05:53:26.061Z,6.94
2022-09-28T05:55:53.019Z,6.91
2022-09-28T05:58:19.823Z,6.92
2022-09-28T06:00:46.668Z,6.87
2022-09-28T06:03:15.271Z,6.94
2022-09-28T06:05:42.204Z,6.91
2022-09-28T06:08:13.154Z,6.91
2022-09-28T06:10:41.120Z,6.94
2022-09-28T06:13:08.748Z,6.91
2022-09-28T06:15:36.999Z,6.94
2022-09-28T06:18:11.046Z,6.96
2022-09-28T06:20:43.381Z,6.97
2022-09-28T06:23:11.293Z,7.00
2022-09-28T06:25:38.630Z,7.02
2022-09-28T06:28:14.673Z,7.02
2022-09-28T06:30:43.349Z,6.97
2022-09-28T06:33:13.438Z,6.99
2022-09-28T06:35:40.913Z,7.02
2022-09-28T06:38:08.034Z,7.05
2022-09-28T06:40:35.357Z,7.08
2022-09-28T06:43:15.289Z,7.09
2022-09-28T06:45:43.388Z,7.22
2022-09-28T06:48:11.573Z,7.19
2022-09-28T06:50:41.081Z,7.29
2022-09-28T06:53:12.008Z,7.28
2022-09-28T06:55:44.085Z,7.27
2022-09-28T06:58:14.615Z,7.31
2022-09-28T07:00:42.408Z,7.28
2022-09-28T07:03:14.298Z,7.25
2022-09-28T07:05:44.376Z,7.28
2022-09-28T07:08:12.385Z,7.30
2022-09-28T07:10:48.317Z,7.37
2022-09-28T07:13:43.276Z,7.38
2022-09-28T07:16:04.613Z,7.41
2022-09-28T07:18:31.513Z,7.52
2022-09-28T07:20:59.529Z,7.52
2022-09-28T07:23:29.719Z,7.59
2022-09-28T07:25:58.349Z,7.73
2022-09-28T07:28:25.552Z,7.73
2022-09-28T07:30:52.553Z,7.82
2022-09-28T07:33:19.410Z,7.87
2022-09-28T07:35:54.543Z,7.94
2022-09-28T07:38:22.257Z,8.03
2022-09-28T07:41:07.589Z,8.13
2022-09-28T07:43:34.488Z,8.19
2022-09-28T07:46:01.356Z,8.37
2022-09-28T07:48:28.357Z,8.55
2022-09-28T07:50:57.451Z,8.77
2022-09-28T07:53:25.892Z,9.22
2022-09-28T07:55:53.331Z,9.58
2022-09-28T07:58:20.842Z,9.93
2022-09-28T08:00:49.578Z,10.32
2022-09-28T08:03:22.632Z,10.67
2022-09-28T08:05:49.931Z,11.05
2022-09-28T08:08:16.829Z,11.44
2022-09-28T08:10:47.243Z,11.54
2022-09-28T08:13:16.502Z,11.80
2022-09-28T08:15:43.361Z,11.76
2022-09-28T08:18:10.585Z,11.76
2022-09-28T08:20:55.944Z,11.91
2022-09-28T08:23:23.707Z,12.00
2022-09-28T08:25:55.307Z,12.05
2022-09-28T08:28:24.163Z,12.14
2022-09-28T08:30:51.858Z,12.14
2022-09-28T08:33:21.444Z,12.10
2022-09-28T08:35:54.866Z,12.13
2022-09-28T08:38:21.812Z,12.18
2022-09-28T08:41:15.692Z,12.08
2022-09-28T08:44:14.135Z,12.12
2022-09-28T08:47:01.371Z,12.07
2022-09-28T08:49:50.607Z,12.04
2022-09-28T08:52:26.845Z,12.00
2022-09-28T08:55:28.123Z,11.87
2022-09-28T08:58:23.783Z,11.85
2022-09-28T09:00:54.344Z,11.92
2022-09-28T09:03:33.706Z,11.88
2022-09-28T09:06:23.812Z,11.78
2022-09-28T09:09:14.876Z,11.78
2022-09-28T09:12:06.508Z,11.71
2022-09-28T09:15:39.392Z,11.52
2022-09-28T09:18:20.087Z,11.49
2022-09-28T09:20:59.179Z,11.50
2022-09-28T09:23:57.421Z,11.41
2022-09-28T09:26:39.690Z,11.42
2022-09-28T09:30:01.382Z,11.34
2022-09-28T09:32:37.080Z,11.32
2022-09-28T09:35:22.882Z,11.20
2022-09-28T09:37:58.659Z,11.22
2022-09-28T09:40:43.199Z,11.19
2022-09-28T09:43:58.886Z,11.20
2022-09-28T09:46:42.533Z,11.21
2022-09-28T09:49:33.593Z,11.20
2022-09-28T09:52:24.372Z,11.20
2022-09-28T09:55:03.629Z,11.15
2022-09-28T09:57:42.613Z,11.20
2022-09-28T10:00:15.474Z,11.19
2022-09-28T10:02:47.036Z,11.23
2022-09-28T10:05:13.774Z,11.27
2022-09-28T10:07:59.093Z,11.28
2022-09-28T10:10:34.212Z,11.30
2022-09-28T10:13:01.371Z,11.28
2022-09-28T10:15:32.240Z,11.34
2022-09-28T10:18:06.889Z,11.44
2022-09-28T10:20:43.300Z,11.51
2022-09-28T10:23:30.221Z,11.57
2022-09-28T10:26:07.509Z,11.57
2022-09-28T10:28:45.989Z,11.55
2022-09-28T10:31:49.056Z,11.52
2022-09-28T10:34:19.065Z,11.52
2022-09-28T10:37:00.883Z,11.53
2022-09-28T10:39:53.376Z,11.48
2022-09-28T10:42:26.940Z,11.49
2022-09-28T10:45:04.865Z,11.53
2022-09-28T10:47:32.912Z,11.59
2022-09-28T10:50:01.047Z,11.72
2022-09-28T10:52:31.899Z,11.77
2022-09-28T10:54:58.868Z,11.79
2022-09-28T10:57:44.016Z,11.85
2022-09-28T11:00:31.851Z,11.95
2022-09-28T11:03:00.541Z,12.09
2022-09-28T11:05:28.094Z,12.22
2022-09-28T11:07:57.425Z,12.24
2022-09-28T11:10:29.364Z,12.30
2022-09-28T11:12:57.113Z,12.42
2022-09-28T11:15:33.377Z,12.54
2022-09-28T11:18:31.695Z,12.56
2022-09-28T11:21:15.906Z,12.63
2022-09-28T11:24:07.612Z,12.67
2022-09-28T11:26:44.740Z,12.76
2022-09-28T11:29:41.932Z,12.76
2022-09-28T11:32:14.897Z,12.67
2022-09-28T11:34:59.285Z,12.68
2022-09-28T11:37:37.943Z,12.78
2022-09-28T11:40:30.971Z,12.89
2022-09-28T11:43:16.802Z,13.03
2022-09-28T11:46:01.879Z,13.13
2022-09-28T11:48:41.053Z,13.25
2022-09-28T11:51:28.102Z,13.37
2022-09-28T11:54:18.286Z,13.36
2022-09-28T11:56:49.375Z,13.32
2022-09-28T11:59:28.032Z,13.27
2022-09-28T12:02:17.642Z,13.33
2022-09-28T12:04:51.333Z,13.46
2022-09-28T12:07:35.003Z,13.62
2022-09-28T12:10:45.265Z,13.73
2022-09-28T12:13:20.596Z,13.74
2022-09-28T12:19:11.257Z,13.62
2022-09-28T12:21:45.879Z,13.70
2022-09-28T12:24:16.478Z,13.81
2022-09-28T12:26:49.329Z,13.91
2022-09-28T12:29:23.884Z,14.09
2022-09-28T12:32:09.275Z,14.19
2022-09-28T12:34:36.158Z,14.20
2022-09-28T12:37:36.906Z,14.21
2022-09-28T12:40:23.514Z,14.21
2022-09-28T12:43:14.643Z,14.30
2022-09-28T12:46:21.583Z,14.20
2022-09-28T12:50:36.641Z,14.17
2022-09-28T12:53:29.760Z,14.07
2022-09-28T12:56:09.472Z,14.03
2022-09-28T12:59:07.216Z,14.10
2022-09-28T13:02:37.138Z,14.21
2022-09-28T13:05:44.608Z,14.33
2022-09-28T13:08:55.581Z,14.39
2022-09-28T13:11:34.324Z,14.36
2022-09-28T13:14:35.200Z,14.35
2022-09-28T13:17:35.679Z,14.46
2022-09-28T13:20:44.674Z,14.54
2022-09-28T13:23:31.483Z,14.64
2022-09-28T13:26:14.590Z,14.72
2022-09-28T13:28:44.369Z,14.76
2022-09-28T13:31:13.494Z,14.73
2022-09-28T13:33:44.069Z,14.70
2022-09-28T13:36:34.949Z,14.58
2022-09-28T13:39:02.216Z,14.48
2022-09-28T13:41:40.603Z,14.41
2022-09-28T13:44:13.385Z,14.30
2022-09-28T13:47:21.763Z,14.19
2022-09-28T13:50:15.629Z,14.02
2022-09-28T13:52:55.892Z,13.89
2022-09-28T13:55:47.414Z,13.75
2022-09-28T13:59:02.417Z,13.56
2022-09-28T14:01:43.132Z,13.51
2022-09-28T14:04:20.323Z,13.52
2022-09-28T14:06:57.117Z,13.61
2022-09-28T14:10:02.609Z,13.67
2022-09-28T14:12:35.056Z,13.80
2022-09-28T14:15:13.377Z,13.77
2022-09-28T14:18:05.523Z,13.64
2022-09-28T14:20:35.459Z,13.56
2022-09-28T14:23:43.352Z,13.57
2022-09-28T14:26:49.622Z,13.67
2022-09-28T14:29:31.416Z,13.77
2022-09-28T14:32:25.130Z,13.98
2022-09-28T14:35:02.669Z,14.00
2022-09-28T14:37:54.821Z,14.14
2022-09-28T14:41:11.577Z,14.18
2022-09-28T14:43:58.804Z,14.10
2022-09-28T14:46:25.612Z,14.16
2022-09-28T14:49:19.393Z,14.18
2022-09-28T14:52:02.743Z,14.11
2022-09-28T14:54:45.576Z,14.12
2022-09-28T14:57:19.908Z,14.13
2022-09-28T14:59:47.939Z,14.03
2022-09-28T15:02:25.737Z,13.89
2022-09-28T15:04:56.680Z,13.86
2022-09-28T15:07:28.968Z,13.81
2022-09-28T15:10:02.215Z,13.79
2022-09-28T15:12:31.436Z,13.78
2022-09-28T15:15:08.669Z,13.66
2022-09-28T15:17:40.282Z,13.59
2022-09-28T15:20:30.708Z,13.60
2022-09-28T15:22:59.791Z,13.62
2022-09-28T15:25:34.124Z,13.69
2022-09-28T15:28:17.010Z,13.65
2022-09-28T15:30:43.950Z,13.67
2022-09-28T15:33:44.714Z,13.64
2022-09-28T15:36:24.371Z,13.59
2022-09-28T15:39:12.768Z,13.53
2022-09-28T15:41:41.992Z,13.54
2022-09-28T15:44:33.148Z,13.48
2022-09-28T15:47:14.602Z,13.45
2022-09-28T15:49:53.761Z,13.43
2022-09-28T15:52:46.269Z,13.41
2022-09-28T15:55:25.041Z,13.32
2022-09-28T15:58:15.928Z,13.22
2022-09-28T16:00:45.277Z,13.16
2022-09-28T16:03:11.970Z,13.13
2022-09-28T16:05:56.746Z,13.10
2022-09-28T16:08:42.191Z,12.98
2022-09-28T16:11:20.460Z,13.01
2022-09-28T16:14:06.803Z,12.98
2022-09-28T16:16:49.503Z,12.87
2022-09-28T16:19:36.764Z,12.82
2022-09-28T16:22:13.662Z,12.85
2022-09-28T16:24:40.511Z,12.75
2022-09-28T16:27:44.588Z,12.67
2022-09-28T16:31:02.445Z,12.66
2022-09-28T16:33:43.985Z,12.61
2022-09-28T16:36:17.328Z,12.62
2022-09-28T16:38:48.782Z,12.50
2022-09-28T16:41:29.087Z,12.51
2022-09-28T16:44:02.361Z,12.48
2022-09-28T16:46:39.656Z,12.34
2022-09-28T16:49:07.253Z,12.29
2022-09-28T16:51:35.549Z,12.16
2022-09-28T16:54:33.480Z,12.12
2022-09-28T16:57:01.585Z,12.03
2022-09-28T16:59:29.211Z,11.98
2022-09-28T17:01:56.944Z,11.91
2022-09-28T17:04:25.530Z,11.84
2022-09-28T17:06:54.471Z,11.75
2022-09-28T17:09:22.528Z,11.70
2022-09-28T17:11:56.212Z,11.70
2022-09-28T17:14:24.350Z,11.69
2022-09-28T17:19:41.080Z,11.55
2022-09-28T17:22:10.104Z,11.56
2022-09-28T17:24:37.567Z,11.48
2022-09-28T17:27:07.025Z,11.43
2022-09-28T17:29:33.908Z,11.41
2022-09-28T17:32:00.773Z,11.34
2022-09-28T17:34:27.637Z,11.28
2022-09-28T17:36:55.150Z,11.27
2022-09-28T17:39:25.041Z,11.20
2022-09-28T17:41:51.981Z,11.16
2022-09-28T17:44:20.569Z,11.09
2022-09-28T17:46:49.743Z,11.04
2022-09-28T17:49:17.451Z,10.94
2022-09-28T17:51:47.366Z,10.97
2022-09-28T17:54:16.931Z,10.89
2022-09-28T17:56:43.805Z,10.85
2022-09-28T17:59:14.561Z,10.81
2022-09-28T18:01:41.599Z,10.72
2022-09-28T18:04:22.965Z,10.69
2022-09-28T18:06:54.717Z,10.63
2022-09-28T18:09:25.412Z,10.60
2022-09-28T18:12:01.032Z,10.55
2022-09-28T18:14:28.647Z,10.49
2022-09-28T18:16:55.578Z,10.42
2022-09-28T18:19:22.454Z,10.38
2022-09-28T18:21:49.224Z,10.32
2022-09-28T18:24:15.997Z,10.25
2022-09-28T18:26:42.822Z,10.18
2022-09-28T18:29:10.333Z,10.15
2022-09-28T18:31:37.149Z,10.11
2022-09-28T18:34:04.041Z,10.06
2022-09-28T18:36:33.917Z,10.04
2022-09-28T18:39:01.663Z,10.02
2022-09-28T18:41:29.460Z,9.99
2022-09-28T18:44:00.918Z,10.01
2022-09-28T18:46:29.572Z,10.04
2022-09-28T18:48:56.919Z,10.03
2022-09-28T18:51:23.887Z,10.10
2022-09-28T18:53:50.741Z,10.11
2022-09-28T18:56:19.308Z,10.15
2022-09-28T18:58:51.772Z,10.19
2022-09-28T19:01:36.545Z,10.17
2022-09-28T19:04:07.510Z,10.29
2022-09-28T19:06:38.815Z,10.28
2022-09-28T19:09:05.759Z,10.33
2022-09-28T19:11:33.018Z,10.34
2022-09-28T19:13:59.967Z,10.39
2022-09-28T19:16:30.109Z,10.44
2022-09-28T19:18:59.062Z,10.49
2022-09-28T19:21:27.248Z,10.42
2022-09-28T19:23:55.672Z,10.43
2022-09-28T19:26:27.089Z,10.44
2022-09-28T19:28:56.235Z,10.45
2022-09-28T19:31:24.050Z,10.44
2022-09-28T19:33:50.989Z,10.44
2022-09-28T19:36:21.956Z,10.46
2022-09-28T19:38:49.217Z,10.39
2022-09-28T19:41:43.403Z,10.34
2022-09-28T19:44:24.885Z,10.27
2022-09-28T19:47:04.331Z,10.19
2022-09-28T19:49:33.347Z,10.16
2022-09-28T19:52:16.788Z,10.09
2022-09-28T19:54:55.420Z,10.01
2022-09-28T19:57:31.863Z,9.97
2022-09-28T20:00:03.450Z,9.91
2022-09-28T20:02:30.777Z,9.88
2022-09-28T20:04:57.645Z,9.85
2022-09-28T20:07:24.497Z,9.81
2022-09-28T20:09:51.949Z,9.76
2022-09-28T20:12:18.940Z,9.72
2022-09-28T20:14:45.739Z,9.67
2022-09-28T20:17:12.573Z,9.60
2022-09-28T20:19:39.429Z,9.54
2022-09-28T20:22:06.615Z,9.52
2022-09-28T20:24:33.711Z,9.47
2022-09-28T20:27:01.701Z,9.45
2022-09-28T20:29:31.810Z,9.41
2022-09-28T20:31:59.201Z,9.40
2022-09-28T20:34:26.115Z,9.41
2022-09-28T20:36:53.070Z,9.44
2022-09-28T20:39:20.284Z,9.47
2022-09-28T20:41:49.214Z,9.47
2022-09-28T20:44:16.252Z,9.50
2022-09-28T20:46:44.413Z,9.55
2022-09-28T20:49:11.374Z,9.60
2022-09-28T20:51:38.170Z,9.59
2022-09-28T20:54:05.072Z,9.53
2022-09-28T20:56:38.971Z,9.54
2022-09-28T20:59:12.181Z,9.65
2022-09-28T21:01:39.186Z,9.63
2022-09-28T21:04:09.267Z,9.70
2022-09-28T21:06:39.925Z,9.71
2022-09-28T21:09:09.382Z,9.71
2022-09-28T21:11:37.169Z,9.77
2022-09-28T21:14:06.989Z,9.78
2022-09-28T21:16:35.418Z,9.79
2022-09-28T21:19:03.121Z,9.82
2022-09-28T21:21:30.426Z,9.81
2022-09-28T21:23:58.604Z,9.85
2022-09-28T21:26:29.744Z,9.84
2022-09-28T21:29:02.234Z,9.87
2022-09-28T21:31:39.810Z,9.89
2022-09-28T21:34:07.805Z,9.85
2022-09-28T21:36:34.877Z,9.87
2022-09-28T21:39:01.648Z,9.88
2022-09-28T21:41:29.364Z,9.91
2022-09-28T21:43:56.263Z,9.91
2022-09-28T21:46:23.336Z,9.89
2022-09-28T21:48:54.023Z,9.89
2022-09-28T21:51:21.225Z,9.89
2022-09-28T21:53:49.396Z,9.81
2022-09-28T21:56:16.350Z,9.87
2022-09-28T21:58:43.122Z,9.89
2022-09-28T22:01:22.942Z,9.88
2022-09-28T22:03:53.222Z,9.89
2022-09-28T22:06:23.460Z,9.92
2022-09-28T22:08:50.993Z,9.95
2022-09-28T22:11:21.389Z,9.95
2022-09-28T22:13:51.588Z,9.93
2022-09-28T22:16:22.613Z,9.84
2022-09-28T22:18:50.457Z,9.89
2022-09-28T22:21:26.762Z,9.82
2022-09-28T22:23:53.701Z,9.90
2022-09-28T22:26:24.979Z,9.82
2022-09-28T22:29:09.875Z,9.81
2022-09-28T22:31:40.159Z,9.85
2022-09-28T22:34:07.910Z,9.82
2022-09-28T22:36:34.929Z,9.88
2022-09-28T22:39:01.797Z,9.86
2022-09-28T22:41:28.728Z,9.84
2022-09-28T22:43:56.957Z,9.88
2022-09-28T22:46:27.278Z,9.87
2022-09-28T22:48:57.277Z,9.88
2022-09-28T22:51:26.432Z,9.86
2022-09-28T22:53:53.535Z,9.88
2022-09-28T22:56:20.621Z,9.76
2022-09-28T22:58:48.208Z,9.70
2022-09-28T23:01:22.182Z,9.73
2022-09-28T23:03:51.427Z,9.76
2022-09-28T23:06:21.157Z,9.68
2022-09-28T23:08:50.606Z,9.70
2022-09-28T23:11:17.677Z,9.63
2022-09-28T23:13:53.168Z,9.65
2022-09-28T23:16:20.919Z,9.59
2022-09-28T23:18:49.414Z,9.65
2022-09-28T23:21:19.741Z,9.64
2022-09-28T23:23:55.131Z,9.49
2022-09-28T23:26:26.709Z,9.55
2022-09-28T23:28:54.188Z,9.47
2022-09-28T23:31:28.088Z,9.57
2022-09-28T23:34:05.340Z,9.57
2022-09-28T23:36:32.740Z,9.54
2022-09-28T23:38:59.779Z,9.61
2022-09-28T23:41:26.669Z,9.55
2022-09-28T23:43:53.537Z,9.53
2022-09-28T23:46:21.239Z,9.60
2022-09-28T23:48:49.549Z,9.56
2022-09-28T23:51:16.837Z,9.59
2022-09-28T23:53:43.784Z,9.61
2022-09-28T23:56:11.356Z,9.63
2022-09-28T23:58:38.309Z,9.70
